Time;durP1;ratioP1;P1;durP2;ratioP2;P2;SDS_P1;SDS_P2;PMS_P1;PMS_P2;Temp;Humidity;BMP_temperature;BMP_pressure;BME280_temperature;BME280_humidity;BME280_pressure;Samples;Min_cycle;Max_cycle;Signal;HPM_P1;HPM_P2
2021/04/18 00:00:23;;;;;;;4.22;2.92;;;19.50;71.20;;;;;;4991302;28;20084;-61
2021/04/18 00:02:54;;;;;;;6.63;3.65;;;19.60;71.10;;;;;;4967142;28;20092;-62
2021/04/18 00:05:27;;;;;;;7.05;2.88;;;19.60;71.20;;;;;;4986810;28;20409;-56
2021/04/18 00:08:01;;;;;;;;;;;19.60;71.10;;;;;;4991560;28;20058;-58
2021/04/18 00:10:34;;;;;;;7.03;3.55;;;19.70;71.10;;;;;;4973970;28;20004;-58
2021/04/18 00:13:03;;;;;;;6.82;3.15;;;19.70;71.10;;;;;;4988300;28;20065;-60
2021/04/18 00:15:56;;;;;;;6.80;3.25;;;19.80;70.60;;;;;;4985986;28;20054;-62
2021/04/18 00:19:23;;;;;;;4.32;3.25;;;20.00;70.70;;;;;;4994635;28;20030;-59
2021/04/18 00:21:57;;;;;;;4.47;2.95;;;20.10;70.00;;;;;;4998557;28;20451;-58
2021/04/18 00:31:26;;;;;;;8.23;3.25;;;20.40;68.90;;;;;;4900873;29;20068;-57
2021/04/18 00:33:53;;;;;;;6.90;3.42;;;20.50;67.40;;;;;;4901507;29;20040;-64
2021/04/18 00:36:20;;;;;;;6.03;3.20;;;20.60;68.00;;;;;;4979935;28;20046;-59
2021/04/18 00:38:48;;;;;;;4.18;2.63;;;20.70;67.50;;;;;;4980102;28;20069;-59
2021/04/18 00:41:15;;;;;;;6.53;3.35;;;20.90;67.00;;;;;;4979966;28;20023;-61
2021/04/18 00:43:45;;;;;;;6.05;3.33;;;21.00;65.90;;;;;;4979308;28;20030;-62
2021/04/18 00:46:13;;;;;;;5.43;3.20;;;21.00;66.80;;;;;;4980942;28;20026;-61
2021/04/18 00:48:42;;;;;;;7.47;2.83;;;21.10;66.50;;;;;;4998510;28;20484;-61
2021/04/18 00:51:17;;;;;;;5.15;2.78;;;21.20;65.80;;;;;;4998567;28;20484;-59
2021/04/18 00:53:45;;;;;;;6.28;3.25;;;21.30;64.30;;;;;;4980935;28;20027;-59
2021/04/18 00:56:18;;;;;;;5.25;2.83;;;21.20;64.20;;;;;;4999386;28;20069;-57
2021/04/18 00:58:49;;;;;;;4.25;2.58;;;21.30;64.70;;;;;;4999499;28;20384;-57
2021/04/18 01:01:17;;;;;;;9.60;2.95;;;21.30;64.70;;;;;;4982529;28;20037;-62
2021/04/18 01:03:44;;;;;;;8.20;2.83;;;21.30;63.30;;;;;;4997620;28;20030;-57
2021/04/18 01:06:12;;;;;;;6.70;2.90;;;21.40;63.50;;;;;;4998855;28;20539;-54
2021/04/18 01:08:39;;;;;;;5.63;3.15;;;21.40;63.60;;;;;;4978110;28;20059;-62
2021/04/18 01:11:07;;;;;;;4.80;2.72;;;21.40;64.70;;;;;;4979721;28;20042;-61
2021/04/18 01:13:34;;;;;;;5.93;3.35;;;21.40;65.40;;;;;;4978445;28;20038;-63
2021/04/18 01:16:06;;;;;;;5.03;2.92;;;21.30;65.50;;;;;;4978773;28;20054;-60
2021/04/18 01:18:33;;;;;;;4.65;2.75;;;21.50;64.30;;;;;;4979318;28;20126;-64
2021/04/18 01:21:12;;;;;;;5.07;3.20;;;21.50;64.60;;;;;;4979262;28;20035;-61
2021/04/18 01:33:56;;;;;;;5.03;2.85;;;21.80;64.30;;;;;;4935805;29;20031;-57
2021/04/18 01:37:12;;;;;;;4.20;2.57;;;21.90;62.70;;;;;;4919510;29;20194;-49
2021/04/18 01:49:31;;;;;;;7.50;3.15;;;22.50;61.50;;;;;;4906660;29;20072;-64
2021/04/18 01:51:59;;;;;;;15.45;3.97;;;22.50;59.90;;;;;;4915986;29;20028;-64
2021/04/18 01:54:27;;;;;;;11.45;3.47;;;22.60;60.70;;;;;;4966910;28;20069;-64
2021/04/18 01:56:57;;;;;;;9.18;3.88;;;22.70;60.20;;;;;;4974684;28;20046;-63
2021/04/18 02:03:26;;;;;;;13.43;4.47;;;22.80;61.20;;;;;;4969159;28;20488;-60
2021/04/18 02:12:59;;;;;;;12.82;4.60;;;22.80;61.30;;;;;;4929117;29;20097;-56
2021/04/18 02:15:27;;;;;;;11.68;4.65;;;22.70;61.90;;;;;;4930617;29;20097;-57
2021/04/18 02:17:55;;;;;;;10.20;4.45;;;22.60;60.90;;;;;;4978953;28;20522;-61
2021/04/18 02:20:23;;;;;;;12.05;4.82;;;22.60;62.20;;;;;;4991969;28;20727;-52
2021/04/18 02:23:56;;;;;;;10.32;3.78;;;22.50;62.30;;;;;;4988920;28;20400;-58
2021/04/18 02:27:11;;;;;;;14.02;4.53;;;22.50;61.80;;;;;;4973745;28;20045;-54
2021/04/18 02:53:57;;;;;;;9.60;3.72;;;22.00;64.20;;;;;;4822705;29;20098;-54
2021/04/18 02:56:29;;;;;;;8.80;3.72;;;22.10;63.60;;;;;;4822446;29;20181;-57
2021/04/18 02:58:56;;;;;;;9.32;4.30;;;22.00;64.80;;;;;;4821890;29;20034;-60
2021/04/18 03:01:26;;;;;;;10.63;4.28;;;22.00;65.30;;;;;;4862612;29;20124;-64
2021/04/18 03:03:54;;;;;;;12.25;4.80;;;22.10;65.30;;;;;;4967286;28;20322;-61
2021/04/18 03:06:21;;;;;;;12.85;3.88;;;22.10;64.30;;;;;;4993817;28;20039;-65
2021/04/18 03:11:31;;;;;;;11.07;3.90;;;22.50;63.80;;;;;;5746163;23;20043;-51
2021/04/18 03:13:58;;;;;;;9.98;4.13;;;22.70;61.80;;;;;;4945639;29;20039;-53
2021/04/18 03:16:26;;;;;;;12.77;5.55;;;22.90;61.00;;;;;;4953391;28;20038;-58
2021/04/18 03:18:56;;;;;;;9.32;4.68;;;23.00;60.50;;;;;;4955143;28;20024;-56
2021/04/18 03:25:12;;;;;;;10.95;5.43;;;23.30;60.00;;;;;;4876596;29;20049;-49
2021/04/18 03:27:40;;;;;;;10.30;5.97;;;23.40;60.50;;;;;;4869690;29;20055;-62
2021/04/18 03:31:36;;;;;;;12.00;6.38;;;23.50;60.00;;;;;;4869210;29;20064;-55
2021/04/18 03:34:31;;;;;;;9.55;3.67;;;23.60;59.80;;;;;;4852115;29;20033;-61
2021/04/18 03:38:03;;;;;;;;;;;;;;;;;;;;;
2021/04/18 03:40:31;;;;;;;12.52;7.75;;;23.90;56.20;;;;;;4835607;29;20373;-65
2021/04/18 03:43:37;;;;;;;13.20;5.68;;;23.90;57.70;;;;;;4943889;29;20087;-62
2021/04/18 03:46:24;;;;;;;16.85;6.18;;;23.70;57.30;;;;;;4936210;29;20039;-63
2021/04/18 03:48:52;;;;;;;18.73;10.38;;;23.60;59.70;;;;;;4935108;29;20481;-67
2021/04/18 03:51:19;;;;;;;8.70;5.93;;;23.50;60.30;;;;;;4917536;29;20066;-65
2021/04/18 03:54:47;;;;;;;;;;;;;;;;;;;;;
2021/04/18 03:57:18;;;;;;;9.98;5.15;;;23.30;61.80;;;;;;4935500;29;20040;-65
2021/04/18 03:59:58;;;;;;;12.80;10.43;;;23.20;61.70;;;;;;4934736;29;20077;-61
2021/04/18 04:03:39;;;;;;;13.68;7.28;;;23.20;61.00;;;;;;4877146;29;20927;-63
2021/04/18 04:06:47;;;;;;;12.05;6.75;;;23.10;61.60;;;;;;4856718;29;20033;-62
2021/04/18 04:09:14;;;;;;;10.18;6.03;;;23.10;62.30;;;;;;4805883;29;20051;-64
2021/04/18 04:11:42;;;;;;;14.70;6.72;;;23.00;63.70;;;;;;4857960;29;20063;-65
2021/04/18 04:14:59;;;;;;;;;;;;;;;;;;;;;
2021/04/18 04:17:53;;;;;;;;;;;;;;;;;;;;;
2021/04/18 04:20:50;;;;;;;11.40;5.47;;;23.00;65.30;;;;;;4872816;29;20037;-59
2021/04/18 04:23:47;;;;;;;18.75;5.53;;;23.00;66.90;;;;;;4853244;29;20091;-54
2021/04/18 04:26:15;;;;;;;11.40;4.50;;;23.00;67.80;;;;;;4871711;29;20037;-60
2021/04/18 04:28:42;;;;;;;13.57;4.75;;;22.90;66.20;;;;;;4891015;29;20044;-63
2021/04/18 04:31:10;;;;;;;7.82;4.65;;;23.00;67.80;;;;;;4893322;29;20024;-61
2021/04/18 04:33:38;;;;;;;15.32;4.78;;;23.00;66.90;;;;;;4893843;29;20720;-61
2021/04/18 04:36:07;;;;;;;8.27;3.00;;;23.10;67.00;;;;;;4894793;29;20037;-60
2021/04/18 04:38:35;;;;;;;12.35;3.90;;;23.20;63.20;;;;;;4894657;29;20073;-65
2021/04/18 04:41:03;;;;;;;15.00;4.63;;;23.30;66.50;;;;;;4935685;29;20066;-61
2021/04/18 04:43:33;;;;;;;15.23;3.75;;;23.40;68.50;;;;;;4952895;29;20035;-58
2021/04/18 04:46:00;;;;;;;11.20;4.47;;;23.40;68.40;;;;;;4953418;29;20023;-63
2021/04/18 04:48:28;;;;;;;10.57;3.60;;;23.10;68.90;;;;;;5178449;23;20598;-64
2021/04/18 04:51:02;;;;;;;13.38;3.90;;;23.10;68.80;;;;;;4964734;28;20031;-60
2021/04/18 04:53:40;;;;;;;10.55;3.38;;;23.10;69.20;;;;;;4972381;28;20042;-53
2021/04/18 04:56:08;;;;;;;27.95;4.45;;;23.30;66.80;;;;;;4949056;28;20138;-54
2021/04/18 04:58:35;;;;;;;10.88;3.28;;;23.40;68.20;;;;;;4969448;28;20142;-61
2021/04/18 05:01:03;;;;;;;16.00;3.65;;;23.60;67.40;;;;;;4966452;28;20421;-64
2021/04/18 05:03:31;;;;;;;23.90;3.65;;;23.70;66.10;;;;;;4973015;28;20401;-57
2021/04/18 05:05:58;;;;;;;11.68;3.65;;;23.90;63.80;;;;;;4974896;28;20018;-62
2021/04/18 05:08:26;;;;;;;13.73;3.50;;;24.10;63.80;;;;;;4956546;28;20030;-64
2021/04/18 05:10:53;;;;;;;17.42;3.28;;;24.30;64.60;;;;;;4975404;28;20388;-60
2021/04/18 05:13:22;;;;;;;12.30;3.10;;;24.50;64.70;;;;;;4958400;28;20034;-61
2021/04/18 05:15:49;;;;;;;16.25;2.95;;;24.70;64.50;;;;;;4976281;28;20034;-64
2021/04/18 05:18:17;;;;;;;13.68;2.75;;;24.80;62.60;;;;;;4974394;28;20014;-62
2021/04/18 05:20:44;;;;;;;11.88;3.25;;;24.80;62.60;;;;;;4975426;28;20154;-63
2021/04/18 05:23:12;;;;;;;15.40;2.55;;;24.90;62.50;;;;;;4975235;28;20030;-63
2021/04/18 05:25:39;;;;;;;15.85;2.55;;;24.80;64.20;;;;;;4974293;28;20017;-65
2021/04/18 05:28:07;;;;;;;20.10;3.67;;;24.70;64.30;;;;;;4973106;28;20115;-69
2021/04/18 05:30:34;;;;;;;11.40;2.72;;;24.70;64.60;;;;;;4975653;28;20106;-63
2021/04/18 05:33:02;;;;;;;11.15;3.28;;;24.70;64.50;;;;;;4970089;28;20045;-70
2021/04/18 05:35:29;;;;;;;15.90;3.30;;;24.80;62.40;;;;;;4977542;28;20089;-66
2021/04/18 05:37:57;;;;;;;22.67;3.50;;;24.80;61.90;;;;;;4975755;28;20462;-66
2021/04/18 05:40:24;;;;;;;11.15;3.30;;;24.90;63.40;;;;;;4975055;28;20035;-67
2021/04/18 05:42:52;;;;;;;21.35;3.05;;;25.00;62.80;;;;;;4959041;28;20603;-68
2021/04/18 05:45:19;;;;;;;18.13;3.80;;;25.10;63.30;;;;;;4975540;28;20054;-70
2021/04/18 05:47:47;;;;;;;15.73;3.30;;;25.20;60.20;;;;;;4975511;28;20438;-66
2021/04/18 05:50:15;;;;;;;7.82;2.53;;;25.20;61.30;;;;;;4953016;29;20066;-65
2021/04/18 05:52:44;;;;;;;13.98;3.40;;;25.20;61.90;;;;;;4966727;28;20065;-66
2021/04/18 05:55:11;;;;;;;12.85;3.45;;;25.40;61.40;;;;;;4969660;28;20035;-65
2021/04/18 05:57:42;;;;;;;11.32;3.35;;;25.40;63.10;;;;;;4974069;28;20144;-66
2021/04/18 06:00:10;;;;;;;20.50;3.53;;;25.40;63.00;;;;;;4973265;28;20369;-69
2021/04/18 06:02:37;;;;;;;19.45;2.83;;;25.50;65.70;;;;;;4974036;28;20018;-67
2021/04/18 06:05:05;;;;;;;22.42;3.75;;;25.60;64.10;;;;;;4973634;28;20031;-64
2021/04/18 06:07:33;;;;;;;16.85;2.78;;;25.60;63.50;;;;;;4969820;28;20098;-65
2021/04/18 06:10:00;;;;;;;13.95;2.85;;;25.60;63.00;;;;;;4974877;28;20037;-60
2021/04/18 06:12:28;;;;;;;16.48;2.75;;;25.60;60.60;;;;;;4975814;28;20023;-67
2021/04/18 06:14:55;;;;;;;32.85;3.15;;;25.60;61.50;;;;;;4975284;28;20041;-67
2021/04/18 06:17:23;;;;;;;14.45;2.83;;;25.50;61.00;;;;;;4975481;28;20098;-65
2021/04/18 06:19:50;;;;;;;17.13;3.60;;;25.30;61.40;;;;;;4972598;28;20378;-62
2021/04/18 06:22:18;;;;;;;15.85;3.28;;;25.20;60.40;;;;;;4956804;28;20099;-68
2021/04/18 06:24:45;;;;;;;16.73;3.72;;;24.80;64.30;;;;;;4975100;28;20034;-64
2021/04/18 06:27:13;;;;;;;25.65;3.15;;;24.50;65.60;;;;;;4975052;28;20098;-64
2021/04/18 06:29:40;;;;;;;25.80;3.67;;;24.40;64.70;;;;;;4990074;28;20334;-64
2021/04/18 06:32:08;;;;;;;20.90;3.15;;;24.30;68.20;;;;;;4975120;28;20018;-65
2021/04/18 06:34:36;;;;;;;24.02;2.85;;;24.20;67.10;;;;;;4974440;28;20130;-68
2021/04/18 06:37:04;;;;;;;10.90;2.72;;;24.20;67.40;;;;;;4974791;28;20481;-62
2021/04/18 06:39:31;;;;;;;36.60;3.42;;;24.20;65.00;;;;;;4974972;28;20027;-62
2021/04/18 06:42:04;;;;;;;18.35;3.05;;;24.30;66.20;;;;;;4974894;28;20097;-63
2021/04/18 06:44:33;;;;;;;20.30;2.97;;;24.10;66.70;;;;;;4957454;28;20134;-63
2021/04/18 06:47:01;;;;;;;34.80;3.90;;;24.10;66.90;;;;;;4974866;28;20025;-61
2021/04/18 06:49:30;;;;;;;16.27;3.35;;;24.00;67.00;;;;;;4973970;28;20185;-62
2021/04/18 06:51:58;;;;;;;17.52;3.05;;;23.90;64.30;;;;;;4974568;28;20325;-62
2021/04/18 06:54:26;;;;;;;20.65;2.95;;;23.70;67.50;;;;;;4974420;28;20078;-64
2021/04/18 06:56:53;;;;;;;9.45;2.40;;;23.60;67.60;;;;;;4975002;28;20046;-65
2021/04/18 06:59:21;;;;;;;13.13;3.10;;;23.50;68.10;;;;;;4957125;28;20038;-62
2021/04/18 07:01:48;;;;;;;12.82;2.78;;;23.30;67.20;;;;;;4974793;28;20023;-65
2021/04/18 07:04:23;;;;;;;27.65;2.92;;;23.30;66.80;;;;;;4974625;28;20362;-64
2021/04/18 07:06:53;;;;;;;11.90;3.05;;;23.20;68.00;;;;;;4966191;28;21073;-66
2021/04/18 07:09:24;;;;;;;10.25;2.50;;;23.10;68.30;;;;;;4972415;28;20109;-62
2021/04/18 07:11:59;;;;;;;11.02;3.70;;;23.10;68.40;;;;;;4956007;28;20030;-61
2021/04/18 07:14:26;;;;;;;9.98;2.50;;;23.00;68.70;;;;;;4972622;28;20066;-63
2021/04/18 07:17:15;;;;;;;11.65;2.28;;;22.90;69.50;;;;;;4971000;28;20027;-61
2021/04/18 07:19:46;;;;;;;5.10;2.30;;;22.80;69.50;;;;;;4972678;28;20426;-60
2021/04/18 07:22:27;;;;;;;5.90;2.20;;;22.70;69.60;;;;;;4956060;28;20038;-62
2021/04/18 07:24:59;;;;;;;9.57;2.50;;;22.70;69.70;;;;;;4971194;28;20132;-63
2021/04/18 07:27:44;;;;;;;12.70;2.60;;;22.60;69.70;;;;;;4968739;28;20123;-65
2021/04/18 07:30:13;;;;;;;8.73;2.20;;;22.50;70.40;;;;;;4954680;28;20027;-64
2021/04/18 07:32:40;;;;;;;6.93;2.33;;;22.60;70.80;;;;;;4972382;28;20035;-65
2021/04/18 07:35:28;;;;;;;7.55;2.63;;;22.50;70.50;;;;;;4972165;28;20133;-65
2021/04/18 07:38:23;;;;;;;15.07;2.28;;;22.40;70.40;;;;;;4966994;28;20034;-63
2021/04/18 07:41:20;;;;;;;13.23;3.60;;;22.40;71.00;;;;;;4969527;28;20038;-63
2021/04/18 07:43:48;;;;;;;11.82;1.88;;;22.30;71.10;;;;;;4972640;28;20027;-65
2021/04/18 07:46:17;;;;;;;8.98;2.17;;;22.30;71.20;;;;;;4967613;28;20031;-60
2021/04/18 07:48:46;;;;;;;11.13;2.53;;;22.20;71.00;;;;;;4971299;28;20130;-62
2021/04/18 07:51:14;;;;;;;7.75;2.10;;;22.20;71.60;;;;;;4971812;28;20027;-60
2021/04/18 07:53:42;;;;;;;11.07;2.38;;;22.20;71.50;;;;;;4972013;28;20089;-61
2021/04/18 07:56:14;;;;;;;11.80;2.78;;;22.10;71.80;;;;;;4966589;28;20117;-65
2021/04/18 07:58:44;;;;;;;9.27;2.60;;;22.10;71.80;;;;;;4971258;28;20476;-65
2021/04/18 08:01:12;;;;;;;6.63;2.28;;;22.00;71.80;;;;;;4969703;28;20069;-66
2021/04/18 08:03:44;;;;;;;3.70;1.92;;;22.00;71.70;;;;;;4971608;28;20027;-65
2021/04/18 08:06:11;;;;;;;;;;;22.00;71.70;;;;;;4967028;28;20035;-66
2021/04/18 08:08:54;;;;;;;7.63;2.08;;;22.00;71.40;;;;;;4969721;28;19910;-64
2021/04/18 08:11:23;;;;;;;6.53;2.65;;;21.90;71.40;;;;;;4970762;28;20027;-65
2021/04/18 08:13:57;;;;;;;5.63;2.35;;;21.90;71.60;;;;;;4971733;28;20042;-64
2021/04/18 08:16:33;;;;;;;7.80;2.08;;;21.90;71.70;;;;;;4966946;28;20042;-61
2021/04/18 08:19:14;;;;;;;7.72;2.10;;;21.80;71.80;;;;;;4971646;28;20062;-64
2021/04/18 08:21:43;;;;;;;8.90;2.33;;;21.80;71.90;;;;;;4971162;28;20031;-60
2021/04/18 08:24:20;;;;;;;3.00;1.58;;;21.80;72.00;;;;;;4971254;28;20401;-60
2021/04/18 08:27:05;;;;;;;5.40;2.22;;;21.80;72.10;;;;;;4965356;28;20022;-61
2021/04/18 08:29:34;;;;;;;7.90;2.45;;;21.70;72.00;;;;;;4969887;28;20027;-62
2021/04/18 08:32:08;;;;;;;4.32;2.47;;;21.70;71.90;;;;;;4953816;28;20097;-64
2021/04/18 08:34:40;;;;;;;8.90;2.10;;;21.70;72.00;;;;;;4969831;28;20038;-62
2021/04/18 08:37:15;;;;;;;6.32;2.10;;;21.60;71.90;;;;;;4965855;28;20026;-61
2021/04/18 08:39:43;;;;;;;5.97;1.92;;;21.60;72.00;;;;;;4975147;28;20039;-60
2021/04/18 08:42:28;;;;;;;6.07;2.45;;;21.50;72.10;;;;;;4975038;28;20054;-62
2021/04/18 08:44:56;;;;;;;6.10;2.53;;;21.60;72.10;;;;;;4975521;28;20107;-64
2021/04/18 08:47:27;;;;;;;10.82;2.72;;;21.50;71.90;;;;;;4967057;28;20119;-62
2021/04/18 08:50:16;;;;;;;5.07;1.88;;;21.50;71.70;;;;;;4956364;28;20047;-64
2021/04/18 08:52:44;;;;;;;5.20;1.90;;;21.50;72.10;;;;;;4974379;28;20109;-63
2021/04/18 08:55:14;;;;;;;9.07;2.13;;;21.50;72.20;;;;;;4964832;28;20058;-60
2021/04/18 08:57:41;;;;;;;3.72;2.28;;;21.40;72.20;;;;;;4966641;28;20631;-60
2021/04/18 09:00:15;;;;;;;4.13;2.03;;;21.40;72.00;;;;;;4974701;28;20062;-62
2021/04/18 09:02:52;;;;;;;5.13;2.05;;;21.40;72.20;;;;;;4971982;28;20019;-61
2021/04/18 09:05:22;;;;;;;5.35;2.45;;;21.30;72.40;;;;;;4972776;28;20027;-67
2021/04/18 09:07:50;;;;;;;8.88;2.75;;;21.30;72.40;;;;;;4967900;28;20449;-64
2021/04/18 09:10:18;;;;;;;6.03;1.85;;;21.20;72.50;;;;;;4972902;28;20034;-65
2021/04/18 09:12:48;;;;;;;4.03;1.75;;;21.20;72.40;;;;;;4972560;28;20031;-66
2021/04/18 09:15:19;;;;;;;7.68;2.40;;;21.20;72.40;;;;;;4972718;28;20063;-64
2021/04/18 09:17:46;;;;;;;11.48;3.25;;;21.20;72.50;;;;;;4966559;28;20412;-63
2021/04/18 09:20:20;;;;;;;6.40;2.40;;;21.20;72.50;;;;;;4974787;28;20030;-65
2021/04/18 09:22:48;;;;;;;3.97;2.30;;;21.20;72.30;;;;;;4975068;28;20019;-64
2021/04/18 09:25:19;;;;;;;5.55;2.72;;;21.20;72.50;;;;;;4975493;28;20532;-63
2021/04/18 09:27:54;;;;;;;12.02;3.00;;;21.10;72.20;;;;;;4968933;28;20034;-64
2021/04/18 09:30:26;;;;;;;5.22;2.08;;;21.10;72.00;;;;;;4975253;28;20089;-64
2021/04/18 09:33:04;;;;;;;5.95;2.20;;;21.10;72.40;;;;;;4975054;28;20026;-61
2021/04/18 09:35:31;;;;;;;8.38;2.40;;;21.10;72.30;;;;;;4974528;28;20049;-59
2021/04/18 09:38:01;;;;;;;5.28;1.80;;;21.00;72.20;;;;;;4952626;28;20099;-62
2021/04/18 09:40:34;;;;;;;4.53;2.70;;;21.00;72.30;;;;;;4975902;28;20026;-69
2021/04/18 09:43:07;;;;;;;4.35;2.28;;;21.00;72.50;;;;;;4975638;28;20065;-69
2021/04/18 09:45:35;;;;;;;;;;;21.00;72.50;;;;;;4975336;28;20469;-63
2021/04/18 09:48:22;;;;;;;5.68;2.50;;;21.00;72.40;;;;;;4968901;28;19905;-64
2021/04/18 09:51:06;;;;;;;4.75;2.13;;;21.00;72.40;;;;;;4971889;28;20035;-66
2021/04/18 09:53:34;;;;;;;5.47;2.83;;;20.90;72.50;;;;;;4974918;28;20027;-67
2021/04/18 09:56:08;;;;;;;5.28;1.98;;;20.90;72.30;;;;;;4969052;28;20061;-61
2021/04/18 09:58:37;;;;;;;7.07;2.83;;;20.90;72.70;;;;;;4972443;28;20022;-64
2021/04/18 10:01:26;;;;;;;6.30;2.03;;;20.80;72.70;;;;;;4974835;28;20034;-67
2021/04/18 10:03:54;;;;;;;3.60;2.05;;;20.80;72.70;;;;;;4974273;28;20381;-62
2021/04/18 10:06:25;;;;;;;3.38;2.40;;;20.80;72.70;;;;;;4968778;28;20113;-67
2021/04/18 10:08:56;;;;;;;4.38;2.05;;;20.80;72.60;;;;;;4973478;28;20056;-69
2021/04/18 10:11:23;;;;;;;4.07;2.38;;;20.80;72.60;;;;;;4971478;28;20030;-63
2021/04/18 10:13:54;;;;;;;5.05;2.65;;;20.80;72.60;;;;;;4970874;28;20035;-65
2021/04/18 10:16:50;;;;;;;5.38;2.58;;;20.80;72.60;;;;;;4951652;28;20050;-66
2021/04/18 10:19:20;;;;;;;5.10;2.53;;;20.80;72.60;;;;;;4969867;28;20075;-62
2021/04/18 10:22:03;;;;;;;6.15;2.30;;;20.80;72.60;;;;;;4973892;28;20027;-63
2021/04/18 10:24:50;;;;;;;5.35;2.55;;;20.80;72.70;;;;;;4971803;28;20027;-60
2021/04/18 10:27:22;;;;;;;7.45;3.08;;;20.80;72.60;;;;;;4968250;28;20397;-64
2021/04/18 10:29:50;;;;;;;3.28;1.98;;;20.70;72.50;;;;;;4970307;28;20019;-64
2021/04/18 10:32:19;;;;;;;8.82;2.50;;;20.70;72.50;;;;;;4974038;28;20469;-64
2021/04/18 10:34:48;;;;;;;4.55;2.42;;;20.70;72.50;;;;;;4974007;28;20114;-66
2021/04/18 10:37:16;;;;;;;3.05;2.15;;;20.70;72.50;;;;;;4967450;28;20469;-61
2021/04/18 10:39:44;;;;;;;4.13;2.67;;;20.70;72.50;;;;;;4973489;28;20058;-67
2021/04/18 10:42:12;;;;;;;3.78;2.70;;;20.70;72.50;;;;;;4973908;28;20058;-65
2021/04/18 10:44:40;;;;;;;3.67;2.35;;;20.70;72.40;;;;;;4956817;28;20035;-69
2021/04/18 10:47:17;;;;;;;4.97;2.20;;;20.70;72.40;;;;;;4967343;28;20037;-62
2021/04/18 10:49:49;;;;;;;4.93;2.42;;;20.70;72.50;;;;;;4972544;28;20120;-65
2021/04/18 10:52:17;;;;;;;6.80;2.83;;;20.60;72.40;;;;;;4974105;28;20051;-63
2021/04/18 10:54:45;;;;;;;3.70;2.20;;;20.60;72.40;;;;;;4973388;28;20039;-66
2021/04/18 10:57:12;;;;;;;4.35;2.80;;;20.60;72.30;;;;;;4965560;28;20061;-64
2021/04/18 10:59:40;;;;;;;5.55;3.03;;;20.60;72.40;;;;;;4973144;28;20018;-61
2021/04/18 11:02:08;;;;;;;5.75;2.97;;;20.60;72.50;;;;;;4970628;28;20023;-63
2021/04/18 11:04:35;;;;;;;7.53;3.17;;;20.60;72.50;;;;;;4973406;28;20026;-64
2021/04/18 11:07:03;;;;;;;4.75;2.88;;;20.50;72.60;;;;;;4967287;28;20397;-64
2021/04/18 11:09:31;;;;;;;8.90;3.00;;;20.50;72.60;;;;;;4972230;28;20428;-63
2021/04/18 11:11:58;;;;;;;7.35;2.97;;;20.50;72.70;;;;;;4973004;28;20030;-64
2021/04/18 11:14:27;;;;;;;6.10;2.92;;;20.40;73.00;;;;;;4972960;28;20111;-64
2021/04/18 11:16:55;;;;;;;5.28;2.83;;;20.40;72.90;;;;;;4964273;28;20023;-64
2021/04/18 11:19:22;;;;;;;3.70;2.45;;;20.40;73.00;;;;;;4972519;28;20138;-64
2021/04/18 11:21:50;;;;;;;7.55;3.00;;;20.50;73.00;;;;;;4972852;28;20042;-63
2021/04/18 11:24:17;;;;;;;6.57;3.08;;;20.40;72.80;;;;;;4972717;28;20043;-63
2021/04/18 11:26:45;;;;;;;5.97;2.50;;;20.40;72.90;;;;;;4967411;28;21309;-61
2021/04/18 11:29:12;;;;;;;4.95;2.38;;;20.40;72.80;;;;;;4971734;28;20023;-62
2021/04/18 11:31:40;;;;;;;6.95;2.40;;;20.40;73.10;;;;;;4972307;28;20029;-64
2021/04/18 11:34:07;;;;;;;4.93;2.80;;;20.40;72.80;;;;;;4972625;28;20034;-65
2021/04/18 11:36:35;;;;;;;3.22;2.58;;;20.40;72.90;;;;;;4967262;28;20059;-64
2021/04/18 11:39:05;;;;;;;7.45;3.30;;;20.40;72.90;;;;;;4971704;28;20469;-65
2021/04/18 11:41:33;;;;;;;5.65;3.45;;;20.40;73.10;;;;;;4971890;28;20429;-63
2021/04/18 11:44:02;;;;;;;10.32;3.28;;;20.40;73.20;;;;;;4972334;28;20037;-64
2021/04/18 11:46:31;;;;;;;6.95;3.00;;;20.40;73.00;;;;;;4967463;28;20101;-63
2021/04/18 11:48:59;;;;;;;5.60;3.03;;;20.30;73.00;;;;;;4971130;28;20497;-63
2021/04/18 11:51:27;;;;;;;9.75;3.60;;;20.30;73.00;;;;;;4968985;28;20422;-66
2021/04/18 11:53:54;;;;;;;12.32;3.53;;;20.30;73.20;;;;;;4972135;28;20049;-68
2021/04/18 11:56:22;;;;;;;5.13;3.47;;;20.30;73.20;;;;;;4949883;28;20049;-63
2021/04/18 11:58:50;;;;;;;5.05;3.72;;;20.20;73.20;;;;;;4971372;28;20039;-62
2021/04/18 12:01:17;;;;;;;11.32;3.55;;;20.20;73.40;;;;;;4953791;28;20065;-69
2021/04/18 12:03:45;;;;;;;6.30;3.25;;;20.20;73.40;;;;;;4971239;28;20033;-65
2021/04/18 12:06:12;;;;;;;10.80;3.58;;;20.20;73.40;;;;;;4967757;28;20129;-62
2021/04/18 12:08:40;;;;;;;8.80;3.40;;;20.10;73.90;;;;;;4970490;28;20030;-69
2021/04/18 12:11:07;;;;;;;5.40;3.35;;;20.10;73.40;;;;;;4953732;28;20034;-64
2021/04/18 12:13:35;;;;;;;8.52;3.47;;;20.20;73.40;;;;;;4956443;28;20027;-62
2021/04/18 12:16:03;;;;;;;7.95;3.53;;;20.10;73.30;;;;;;4969443;28;20053;-62
2021/04/18 12:18:31;;;;;;;8.25;3.55;;;20.10;73.30;;;;;;4968987;28;20034;-68
2021/04/18 12:20:58;;;;;;;6.43;3.22;;;20.10;73.30;;;;;;4967332;28;20055;-62
2021/04/18 12:23:26;;;;;;;8.45;3.55;;;20.10;73.40;;;;;;4972094;28;20488;-61
2021/04/18 12:25:53;;;;;;;5.75;3.65;;;20.10;73.40;;;;;;4969284;28;20034;-61
2021/04/18 12:28:21;;;;;;;5.50;3.50;;;20.10;73.40;;;;;;4969339;28;20113;-57
2021/04/18 12:30:49;;;;;;;6.32;3.70;;;20.10;73.50;;;;;;4971190;28;20030;-61
2021/04/18 12:33:16;;;;;;;8.95;4.63;;;20.10;73.50;;;;;;4971251;28;20034;-64
2021/04/18 12:35:44;;;;;;;8.48;4.03;;;20.00;73.50;;;;;;4970436;28;20046;-60
2021/04/18 12:38:11;;;;;;;4.97;3.70;;;20.00;73.50;;;;;;4967781;28;20035;-59
2021/04/18 12:40:39;;;;;;;5.03;3.05;;;20.00;73.50;;;;;;4971164;28;20027;-60
2021/04/18 12:43:07;;;;;;;8.27;3.50;;;20.10;73.60;;;;;;4971343;28;20022;-58
2021/04/18 12:45:34;;;;;;;5.80;4.35;;;20.10;73.50;;;;;;4971725;28;20555;-58
2021/04/18 12:48:02;;;;;;;6.03;3.25;;;20.10;73.60;;;;;;4966059;28;20023;-63
2021/04/18 12:50:29;;;;;;;15.27;4.03;;;20.00;73.50;;;;;;4954344;28;20050;-56
2021/04/18 12:52:57;;;;;;;8.02;4.22;;;20.00;73.60;;;;;;4971715;28;20038;-58
2021/04/18 12:55:24;;;;;;;6.28;3.63;;;20.00;73.50;;;;;;4970942;28;20177;-57
2021/04/18 12:57:52;;;;;;;6.38;3.92;;;20.00;73.50;;;;;;4965346;28;20461;-59
2021/04/18 13:00:20;;;;;;;6.65;3.95;;;20.00;73.50;;;;;;4971123;28;20038;-62
2021/04/18 13:02:48;;;;;;;5.80;3.50;;;20.00;73.60;;;;;;4968414;28;20061;-64
2021/04/18 13:05:16;;;;;;;10.23;4.25;;;20.00;73.50;;;;;;4971959;28;20422;-61
2021/04/18 13:07:44;;;;;;;5.03;3.30;;;19.90;73.50;;;;;;4965146;28;20110;-60
2021/04/18 13:10:12;;;;;;;6.40;3.60;;;19.90;73.60;;;;;;4971203;28;20035;-62
2021/04/18 13:12:45;;;;;;;6.03;3.20;;;20.00;73.60;;;;;;4971254;28;20031;-59
2021/04/18 13:15:16;;;;;;;7.45;3.85;;;19.90;73.60;;;;;;4971376;28;20035;-61
2021/04/18 13:17:46;;;;;;;8.70;3.27;;;20.00;73.60;;;;;;4965410;28;20041;-64
2021/04/18 13:20:14;;;;;;;7.45;3.58;;;19.90;73.60;;;;;;4971418;28;20027;-65
2021/04/18 13:22:42;;;;;;;5.80;3.67;;;19.90;73.60;;;;;;4970982;28;20039;-62
2021/04/18 13:25:12;;;;;;;5.50;3.20;;;19.90;73.60;;;;;;4974049;28;20529;-64
2021/04/18 13:27:40;;;;;;;10.40;3.95;;;19.80;73.60;;;;;;4970088;28;20027;-61
2021/04/18 13:30:09;;;;;;;8.00;3.97;;;19.80;73.60;;;;;;4973993;28;20033;-68
2021/04/18 13:32:37;;;;;;;6.25;3.45;;;19.80;73.80;;;;;;4974960;28;20473;-68
2021/04/18 13:35:05;;;;;;;7.97;3.78;;;19.70;73.70;;;;;;4975035;28;20445;-62
2021/04/18 13:37:33;;;;;;;9.40;3.70;;;19.70;73.80;;;;;;4969047;28;20504;-62
2021/04/18 13:40:00;;;;;;;3.30;2.75;;;19.70;73.90;;;;;;4974019;28;20041;-59
2021/04/18 13:42:28;;;;;;;6.03;3.33;;;19.70;74.10;;;;;;4975906;28;20141;-62
2021/04/18 13:44:55;;;;;;;6.18;3.25;;;19.60;74.10;;;;;;4975141;28;20476;-62
2021/04/18 13:47:23;;;;;;;5.68;3.97;;;19.60;74.30;;;;;;4975867;28;20023;-63
2021/04/18 13:49:50;;;;;;;7.15;3.40;;;19.60;74.20;;;;;;4964553;28;20039;-63
2021/04/18 13:52:18;;;;;;;4.85;3.80;;;19.60;74.30;;;;;;4956453;29;20031;-64
2021/04/18 13:54:45;;;;;;;4.75;3.03;;;19.50;74.40;;;;;;4954978;29;20046;-63
2021/04/18 13:57:13;;;;;;;4.38;3.33;;;19.50;74.40;;;;;;4956446;29;20028;-63
2021/04/18 13:59:40;;;;;;;6.30;3.83;;;19.50;74.50;;;;;;4956836;29;20051;-64
2021/04/18 14:02:07;;;;;;;5.38;3.40;;;19.50;74.60;;;;;;4956548;29;20110;-63
2021/04/18 14:04:35;;;;;;;5.07;3.63;;;19.40;74.60;;;;;;4956814;29;20078;-62
2021/04/18 14:07:03;;;;;;;8.65;3.28;;;19.40;74.70;;;;;;4956671;29;20050;-64
2021/04/18 14:09:31;;;;;;;6.25;3.25;;;19.40;74.80;;;;;;4956878;29;20492;-64
2021/04/18 14:11:59;;;;;;;5.65;3.30;;;19.40;74.90;;;;;;4956845;29;20042;-64
2021/04/18 14:14:26;;;;;;;7.13;3.78;;;19.40;75.10;;;;;;4956642;29;20496;-63
2021/04/18 14:16:53;;;;;;;6.38;3.33;;;19.30;75.10;;;;;;4956441;29;20031;-63
2021/04/18 14:19:20;;;;;;;9.45;3.30;;;19.30;75.30;;;;;;4956536;29;20042;-64
2021/04/18 14:21:48;;;;;;;7.18;3.95;;;19.30;75.40;;;;;;4963369;28;20493;-64